マドリード/バラハス の空港の天気 - METARとTAF

マドリード・バラハス国際空港 ( LEMD / MAD ) - スペイン マドリード
飛行場実況気象(Metar)
観測時間09/21 23:00 CEST (09/21 21:00 UTC)
風向・風速北北西 3m/s
視程10km以上
天気現象
なし
気温23℃
湿度31%
気圧1016hPa
METARLEMD 212100Z 34006KT CAVOK 23/05 Q1016 NOSIG
過去の天気等 Google飛行場航空写真 Wunderground天気予報

過去48時間のMETAR

飛行場予報(TAF)
発表時間: 9/21 19:00 CEST (9/21 17:00 UTC)
予報対象時間: 21日20時 CEST ~ 23日2時 CEST
風向・風速不定 3m/s
視程10km以上
少しの雲 雲底高度 1,520m
21日20時 CEST ~ 21日21時 CEST に 確率 30% で一時的に
風向・風速南西 3m/s 瞬間風速 8m/s
22日1時 CEST ~ 22日5時 CEST に 確率 40% で一時的に
風向・風速北北東 5m/s
22日12時 CEST ~ 22日22時 CEST に一時的に
少しの塔状積雲 雲底高度 1,220m
22日17時 CEST ~ 22日24時 CEST に 確率 40% で一時的に
風向・風速東北東 5m/s 瞬間風速 10m/s
天気現象しゅう雨
全天の4割程度の積乱雲 雲底高度 1,220m
TAF LEMD 211700Z 2118/2224 VRB05KT 9999 FEW050 TX28/2118Z TN14/2206Z
PROB30 TEMPO 2118/2119 23006G16KT
PROB40 TEMPO 2123/2203 02010KT
TEMPO 2210/2220 FEW040TCU
PROB40 TEMPO 2215/2222 07010G20KT SHRA SCT040CB